createdAt,value
2022-08-27T00:02:26.301Z,11.07
2022-08-27T00:04:54.711Z,13.05
2022-08-27T00:07:23.154Z,10.05
2022-08-27T00:09:51.547Z,10.68
2022-08-27T00:12:21.962Z,12.02
2022-08-27T00:14:50.610Z,11.68
2022-08-27T00:17:18.992Z,12.38
2022-08-27T00:19:47.384Z,11.13
2022-08-27T00:22:15.927Z,12.32
2022-08-27T00:24:48.545Z,10.98
2022-08-27T00:27:17.619Z,15.98
2022-08-27T00:29:47.962Z,14.77
2022-08-27T00:32:16.673Z,31.20
2022-08-27T00:34:45.063Z,21.77
2022-08-27T00:37:13.454Z,19.48
2022-08-27T00:39:41.854Z,16.27
2022-08-27T00:42:10.271Z,31.63
2022-08-27T00:44:39.461Z,35.47
2022-08-27T00:47:12.651Z,11.80
2022-08-27T00:49:43.683Z,10.00
2022-08-27T00:52:15.538Z,12.25
2022-08-27T00:54:44.116Z,13.05
2022-08-27T00:57:12.771Z,13.38
2022-08-27T00:59:41.907Z,12.98
2022-08-27T01:02:21.465Z,14.82
2022-08-27T01:04:51.929Z,10.70
2022-08-27T01:07:21.296Z,10.75
2022-08-27T01:09:50.862Z,10.32
2022-08-27T01:12:20.910Z,9.52
2022-08-27T01:14:49.359Z,10.23
2022-08-27T01:17:19.108Z,10.45
2022-08-27T01:19:50.896Z,10.60
2022-08-27T01:22:24.847Z,19.38
2022-08-27T01:24:56.601Z,19.83
2022-08-27T01:27:27.175Z,15.15
2022-08-27T01:29:55.569Z,12.55
2022-08-27T01:32:24.897Z,12.82
2022-08-27T01:34:53.809Z,10.43
2022-08-27T01:37:23.918Z,12.40
2022-08-27T01:39:52.702Z,17.60
2022-08-27T01:42:24.211Z,15.32
2022-08-27T01:44:53.692Z,16.17
2022-08-27T01:47:22.769Z,13.27
2022-08-27T01:49:59.122Z,14.95
2022-08-27T01:52:29.240Z,13.43
2022-08-27T01:54:57.641Z,9.65
2022-08-27T01:57:27.450Z,12.35
2022-08-27T01:59:56.936Z,14.00
2022-08-27T02:02:25.442Z,12.48
2022-08-27T02:04:53.835Z,12.50
2022-08-27T02:07:22.206Z,12.82
2022-08-27T02:09:50.591Z,12.25
2022-08-27T02:12:18.988Z,10.82
2022-08-27T02:14:48.723Z,14.27
2022-08-27T02:17:17.374Z,13.32
2022-08-27T02:19:45.728Z,13.50
2022-08-27T02:22:14.204Z,14.27
2022-08-27T02:24:42.712Z,10.75
2022-08-27T02:27:11.509Z,12.95
2022-08-27T02:29:39.937Z,11.00
2022-08-27T02:32:20.667Z,13.95
2022-08-27T02:34:58.149Z,11.80
2022-08-27T02:37:26.708Z,9.50
2022-08-27T02:39:55.116Z,9.63
2022-08-27T02:42:23.878Z,11.32
2022-08-27T02:44:52.242Z,8.05
2022-08-27T02:47:21.979Z,8.05
2022-08-27T02:49:50.424Z,10.50
2022-08-27T02:52:24.889Z,10.48
2022-08-27T02:54:55.222Z,9.15
2022-08-27T02:57:27.101Z,8.80
2022-08-27T02:59:55.782Z,10.05
2022-08-27T03:02:27.512Z,9.40
2022-08-27T03:04:56.051Z,7.20
2022-08-27T03:07:24.644Z,9.82
2022-08-27T03:09:55.587Z,8.95
2022-08-27T03:12:26.447Z,26.10
2022-08-27T03:14:54.811Z,21.10
2022-08-27T03:17:42.165Z,11.52
2022-08-27T03:20:12.397Z,11.23
2022-08-27T03:22:42.131Z,19.30
2022-08-27T03:25:10.888Z,11.57
2022-08-27T03:27:39.657Z,21.13
2022-08-27T03:30:09.194Z,10.50
2022-08-27T03:32:39.292Z,12.40
2022-08-27T03:35:08.090Z,10.63
2022-08-27T03:37:36.497Z,11.20
2022-08-27T03:40:05.429Z,12.52
2022-08-27T03:42:34.658Z,9.93
2022-08-27T03:45:03.056Z,10.27
2022-08-27T03:47:32.242Z,10.88
2022-08-27T03:50:01.976Z,14.45
2022-08-27T03:52:30.712Z,11.60
2022-08-27T03:55:01.612Z,9.90
2022-08-27T03:57:30.045Z,11.80
2022-08-27T03:59:58.428Z,12.68
2022-08-27T04:02:26.812Z,12.77
2022-08-27T04:04:57.570Z,19.30
2022-08-27T04:07:27.348Z,10.00
2022-08-27T04:09:55.691Z,11.48
2022-08-27T04:12:24.051Z,13.27
2022-08-27T04:14:52.409Z,13.80
2022-08-27T04:17:20.776Z,12.07
2022-08-27T04:19:49.102Z,12.90
2022-08-27T04:22:17.469Z,11.40
2022-08-27T04:24:47.177Z,16.85
2022-08-27T04:27:16.364Z,13.00
2022-08-27T04:29:45.003Z,15.70
2022-08-27T04:32:16.111Z,16.25
2022-08-27T04:34:44.522Z,14.98
2022-08-27T04:37:12.956Z,16.63
2022-08-27T04:39:41.592Z,12.82
2022-08-27T04:42:13.949Z,14.93
2022-08-27T04:44:42.289Z,15.05
2022-08-27T04:47:14.013Z,15.98
2022-08-27T04:49:42.388Z,15.60
2022-08-27T04:52:10.754Z,17.95
2022-08-27T04:54:39.618Z,18.25
2022-08-27T04:57:08.633Z,19.73
2022-08-27T04:59:38.958Z,16.10
2022-08-27T05:02:08.985Z,12.88
2022-08-27T05:04:40.058Z,14.68
2022-08-27T05:07:09.352Z,14.57
2022-08-27T05:09:37.988Z,14.15
2022-08-27T05:12:07.738Z,16.73
2022-08-27T05:14:36.131Z,14.07
2022-08-27T05:17:05.854Z,15.82
2022-08-27T05:19:34.244Z,16.20
2022-08-27T05:22:02.611Z,18.85
2022-08-27T05:24:32.376Z,16.88
2022-08-27T05:27:00.745Z,12.57
2022-08-27T05:29:31.132Z,12.00
2022-08-27T05:31:59.487Z,15.98
2022-08-27T05:34:29.870Z,19.33
2022-08-27T05:36:58.873Z,15.15
2022-08-27T05:39:27.230Z,18.55
2022-08-27T05:41:58.229Z,16.48
2022-08-27T05:44:42.276Z,18.13
2022-08-27T05:47:11.351Z,17.80
2022-08-27T05:49:41.063Z,16.80
2022-08-27T05:52:10.601Z,15.13
2022-08-27T05:54:39.611Z,12.20
2022-08-27T05:57:07.984Z,13.55
2022-08-27T05:59:54.232Z,15.82
2022-08-27T06:02:26.119Z,18.73
2022-08-27T06:04:56.078Z,14.73
2022-08-27T06:07:27.248Z,13.70
2022-08-27T06:09:55.599Z,12.68
2022-08-27T06:12:27.072Z,12.20
2022-08-27T06:14:56.539Z,16.98
2022-08-27T06:17:27.999Z,15.35
2022-08-27T06:19:57.769Z,13.85
2022-08-27T06:22:29.286Z,15.80
2022-08-27T06:24:57.621Z,16.67
2022-08-27T06:27:25.983Z,14.10
2022-08-27T06:29:54.333Z,17.02
2022-08-27T06:32:24.025Z,15.00
2022-08-27T06:34:52.387Z,16.77
2022-08-27T06:37:22.106Z,15.20
2022-08-27T06:39:51.515Z,15.70
2022-08-27T06:42:20.066Z,16.45
2022-08-27T06:44:54.721Z,18.17
2022-08-27T06:47:23.255Z,17.88
2022-08-27T06:49:51.603Z,16.98
2022-08-27T06:52:19.962Z,17.65
2022-08-27T06:54:50.391Z,16.15
2022-08-27T06:57:19.134Z,15.63
2022-08-27T06:59:47.470Z,17.38
2022-08-27T07:02:16.262Z,15.27
2022-08-27T07:04:44.640Z,14.82
2022-08-27T07:07:14.529Z,14.85
2022-08-27T07:10:00.507Z,15.70
2022-08-27T07:12:30.672Z,14.73
2022-08-27T07:14:59.243Z,16.75
2022-08-27T07:17:27.947Z,11.85
2022-08-27T07:19:56.604Z,13.02
2022-08-27T07:22:24.954Z,14.95
2022-08-27T07:24:53.783Z,14.90
2022-08-27T07:27:23.543Z,13.65
2022-08-27T07:29:51.950Z,13.68
2022-08-27T07:32:20.327Z,15.13
2022-08-27T07:34:49.245Z,16.08
2022-08-27T07:37:17.622Z,14.98
2022-08-27T07:39:45.973Z,17.83
2022-08-27T07:42:40.504Z,11.25
2022-08-27T07:45:11.478Z,14.80
2022-08-27T07:47:39.863Z,11.25
2022-08-27T07:50:08.856Z,14.27
2022-08-27T07:52:37.265Z,12.05
2022-08-27T07:55:06.075Z,13.40
2022-08-27T07:57:34.496Z,12.60
2022-08-27T08:00:02.866Z,16.90
2022-08-27T08:02:47.343Z,11.43
2022-08-27T08:05:16.857Z,11.80
2022-08-27T08:07:45.215Z,14.90
2022-08-27T08:10:13.646Z,13.98
2022-08-27T08:12:42.787Z,10.68
2022-08-27T08:15:12.319Z,13.18
2022-08-27T08:17:42.419Z,15.23
2022-08-27T08:20:27.573Z,14.68
2022-08-27T08:23:00.559Z,15.98
2022-08-27T08:25:28.933Z,13.60
2022-08-27T08:28:04.039Z,14.15
2022-08-27T08:30:35.174Z,16.08
2022-08-27T08:33:05.300Z,14.60
2022-08-27T08:35:35.057Z,16.15
2022-08-27T08:38:07.896Z,16.63
2022-08-27T08:40:38.160Z,16.63
2022-08-27T08:43:07.864Z,16.73
2022-08-27T08:45:38.627Z,17.98
2022-08-27T08:48:10.248Z,18.67
2022-08-27T08:50:41.372Z,21.30
2022-08-27T08:53:12.534Z,14.70
2022-08-27T08:55:42.661Z,18.73
2022-08-27T08:58:15.106Z,18.88
2022-08-27T09:00:44.590Z,14.70
2022-08-27T09:03:15.245Z,18.20
2022-08-27T09:05:45.833Z,16.65
2022-08-27T09:08:36.480Z,16.67
2022-08-27T09:11:08.293Z,17.08
2022-08-27T09:13:39.291Z,15.27
2022-08-27T09:16:08.339Z,17.70
2022-08-27T09:18:39.385Z,15.82
2022-08-27T09:21:12.732Z,20.38
2022-08-27T09:23:45.651Z,19.60
2022-08-27T09:26:21.699Z,16.00
2022-08-27T09:29:08.049Z,16.13
2022-08-27T09:31:40.855Z,14.13
2022-08-27T09:34:10.714Z,21.75
2022-08-27T09:36:48.156Z,39.35
2022-08-27T09:39:16.651Z,72.68
2022-08-27T09:41:46.961Z,17.52
2022-08-27T09:44:18.477Z,17.38
2022-08-27T09:46:53.687Z,18.40
2022-08-27T09:49:24.153Z,17.50
2022-08-27T09:51:53.321Z,12.23
2022-08-27T09:54:43.319Z,12.40
2022-08-27T09:57:12.864Z,12.43
2022-08-27T09:59:42.985Z,13.48
2022-08-27T10:02:16.287Z,14.30
2022-08-27T10:04:50.715Z,13.25
2022-08-27T10:07:34.508Z,9.23
2022-08-27T10:10:06.746Z,10.30
2022-08-27T10:12:37.785Z,10.40
2022-08-27T10:15:07.253Z,12.15
2022-08-27T10:17:43.399Z,13.30
2022-08-27T10:20:21.614Z,12.38
2022-08-27T10:23:03.164Z,10.25
2022-08-27T10:25:39.584Z,11.75
2022-08-27T10:28:12.778Z,14.18
2022-08-27T10:30:48.110Z,9.50
2022-08-27T10:33:23.386Z,9.90
2022-08-27T10:35:59.963Z,8.57
2022-08-27T10:38:33.388Z,10.13
2022-08-27T10:41:04.210Z,12.13
2022-08-27T10:43:43.605Z,13.30
2022-08-27T10:46:27.323Z,9.02
2022-08-27T10:48:59.595Z,9.77
2022-08-27T10:51:32.807Z,11.45
2022-08-27T10:54:05.019Z,11.70
2022-08-27T10:56:36.596Z,9.15
2022-08-27T10:59:12.939Z,9.27
2022-08-27T11:01:45.750Z,9.38
2022-08-27T11:04:16.586Z,7.57
2022-08-27T11:06:47.733Z,10.00
2022-08-27T11:09:18.119Z,8.98
2022-08-27T11:12:13.159Z,10.23
2022-08-27T11:14:39.300Z,8.52
2022-08-27T11:17:12.068Z,13.50
2022-08-27T11:19:44.991Z,9.20
2022-08-27T11:22:21.490Z,7.38
2022-08-27T11:24:58.392Z,8.05
2022-08-27T11:27:29.144Z,8.88
2022-08-27T11:30:00.704Z,7.30
2022-08-27T11:32:32.074Z,7.50
2022-08-27T11:35:01.884Z,7.80
2022-08-27T11:37:41.802Z,8.75
2022-08-27T11:40:24.615Z,9.65
2022-08-27T11:42:55.673Z,8.25
2022-08-27T11:45:28.592Z,8.95
2022-08-27T11:47:58.497Z,10.13
2022-08-27T11:50:27.790Z,7.03
2022-08-27T11:52:59.666Z,9.40
2022-08-27T11:55:30.038Z,6.13
2022-08-27T11:58:06.514Z,6.93
2022-08-27T12:00:36.411Z,6.65
2022-08-27T12:03:06.482Z,10.52
2022-08-27T12:05:37.148Z,9.60
2022-08-27T12:08:16.135Z,7.00
2022-08-27T12:10:53.319Z,7.07
2022-08-27T12:13:24.469Z,9.15
2022-08-27T12:15:58.869Z,7.38
2022-08-27T12:18:44.459Z,7.20
2022-08-27T12:21:22.137Z,7.53
2022-08-27T12:24:08.735Z,8.55
2022-08-27T12:26:38.026Z,8.50
2022-08-27T12:29:24.487Z,9.82
2022-08-27T12:31:57.327Z,12.38
2022-08-27T12:34:26.974Z,6.25
2022-08-27T12:36:57.368Z,6.22
2022-08-27T12:39:29.327Z,10.45
2022-08-27T12:41:58.695Z,7.65
2022-08-27T12:44:31.419Z,8.82
2022-08-27T12:47:02.865Z,7.47
2022-08-27T12:49:37.983Z,9.43
2022-08-27T12:52:15.493Z,9.25
2022-08-27T12:55:00.389Z,7.70
2022-08-27T12:57:34.680Z,12.38
2022-08-27T13:00:14.633Z,13.35
2022-08-27T13:02:54.828Z,17.52
2022-08-27T13:05:24.093Z,36.83
2022-08-27T13:07:53.420Z,23.73
2022-08-27T13:10:25.997Z,18.85
2022-08-27T13:13:03.095Z,21.00
2022-08-27T13:15:35.281Z,22.02
2022-08-27T13:18:07.408Z,22.63
2022-08-27T13:20:38.083Z,36.13
2022-08-27T13:23:09.705Z,41.25
2022-08-27T13:25:42.029Z,27.25
2022-08-27T13:28:12.621Z,27.10
2022-08-27T13:30:43.965Z,25.95
2022-08-27T13:33:15.293Z,28.27
2022-08-27T13:35:45.279Z,30.67
2022-08-27T13:38:13.773Z,25.85
2022-08-27T13:40:54.568Z,38.63
2022-08-27T13:43:23.906Z,35.97
2022-08-27T13:45:54.479Z,48.63
2022-08-27T13:48:24.403Z,43.08
2022-08-27T13:50:53.771Z,46.30
2022-08-27T13:53:42.092Z,30.35
2022-08-27T13:56:12.500Z,32.13
2022-08-27T13:58:40.890Z,31.20
2022-08-27T14:01:10.570Z,30.88
2022-08-27T14:03:47.539Z,33.55
2022-08-27T14:06:24.352Z,35.15
2022-08-27T14:09:00.807Z,27.92
2022-08-27T14:11:31.223Z,35.10
2022-08-27T14:13:59.899Z,25.08
2022-08-27T14:16:30.033Z,36.83
2022-08-27T14:19:05.008Z,24.52
2022-08-27T14:21:37.280Z,21.05
2022-08-27T14:24:06.114Z,20.95
2022-08-27T14:26:36.198Z,19.42
2022-08-27T14:29:11.270Z,18.95
2022-08-27T14:31:40.669Z,19.88
2022-08-27T14:34:09.353Z,22.63
2022-08-27T14:36:38.933Z,17.15
2022-08-27T14:39:08.006Z,17.15
2022-08-27T14:41:37.746Z,16.85
2022-08-27T14:44:06.202Z,17.70
2022-08-27T14:46:41.563Z,15.20
2022-08-27T14:49:13.042Z,14.85
2022-08-27T14:51:42.728Z,15.23
2022-08-27T14:54:11.206Z,12.82
2022-08-27T14:56:40.937Z,13.52
2022-08-27T14:59:09.386Z,13.65
2022-08-27T15:01:38.492Z,9.27
2022-08-27T15:04:07.977Z,10.25
2022-08-27T15:06:36.508Z,12.40
2022-08-27T15:09:06.132Z,13.13
2022-08-27T15:11:36.626Z,11.48
2022-08-27T15:14:08.180Z,14.48
2022-08-27T15:16:38.447Z,13.10
2022-08-27T15:19:08.314Z,13.25
2022-08-27T15:21:37.410Z,13.60
2022-08-27T15:24:07.789Z,11.60
2022-08-27T15:26:36.922Z,9.63
2022-08-27T15:29:07.006Z,13.85
2022-08-27T15:31:35.996Z,13.18
2022-08-27T15:34:04.641Z,10.40
2022-08-27T15:36:33.013Z,14.43
2022-08-27T15:39:01.418Z,11.23
2022-08-27T15:41:34.268Z,14.27
2022-08-27T15:44:08.598Z,9.63
2022-08-27T15:46:37.206Z,12.07
2022-08-27T15:49:08.248Z,12.25
2022-08-27T15:51:36.668Z,9.80
2022-08-27T15:54:05.120Z,9.38
2022-08-27T15:56:34.680Z,9.75
2022-08-27T15:59:03.261Z,10.10
2022-08-27T16:01:33.822Z,8.93
2022-08-27T16:04:02.898Z,9.95
2022-08-27T16:06:35.015Z,12.27
2022-08-27T16:09:04.057Z,12.13
2022-08-27T16:11:32.504Z,8.05
2022-08-27T16:14:01.423Z,10.30
2022-08-27T16:16:31.003Z,10.80
2022-08-27T16:19:01.494Z,13.57
2022-08-27T16:21:30.768Z,12.52
2022-08-27T16:23:59.139Z,9.10
2022-08-27T16:26:27.839Z,9.05
2022-08-27T16:28:56.226Z,11.63
2022-08-27T16:31:24.731Z,8.07
2022-08-27T16:33:53.423Z,10.30
2022-08-27T16:36:23.211Z,9.20
2022-08-27T16:38:51.693Z,9.45
2022-08-27T16:41:22.443Z,11.93
2022-08-27T16:43:51.050Z,14.82
2022-08-27T16:46:19.523Z,11.43
2022-08-27T16:49:05.414Z,9.02
2022-08-27T16:51:37.537Z,11.38
2022-08-27T16:54:07.430Z,9.75
2022-08-27T16:56:37.834Z,12.52
2022-08-27T16:59:06.611Z,9.38
2022-08-27T17:01:35.481Z,12.60
2022-08-27T17:04:16.388Z,11.50
2022-08-27T17:06:53.715Z,11.07
2022-08-27T17:09:22.171Z,9.93
2022-08-27T17:11:54.486Z,11.50
2022-08-27T17:14:23.047Z,12.50
2022-08-27T17:16:53.880Z,11.15
2022-08-27T17:19:26.126Z,9.77
2022-08-27T17:21:55.986Z,9.80
2022-08-27T17:24:24.569Z,9.07
2022-08-27T17:26:53.001Z,9.40
2022-08-27T17:29:21.704Z,9.85
2022-08-27T17:31:50.213Z,8.13
2022-08-27T17:34:19.868Z,8.48
2022-08-27T17:36:48.446Z,9.07
2022-08-27T17:39:18.285Z,10.52
2022-08-27T17:41:48.356Z,10.23
2022-08-27T17:44:20.382Z,8.20
2022-08-27T17:46:48.888Z,8.40
2022-08-27T17:49:17.832Z,11.95
2022-08-27T17:51:50.259Z,11.68
2022-08-27T17:54:27.036Z,10.32
2022-08-27T17:56:58.578Z,11.63
2022-08-27T17:59:27.742Z,9.75
2022-08-27T18:01:56.647Z,10.27
2022-08-27T18:04:25.216Z,9.40
2022-08-27T18:06:53.579Z,14.25
2022-08-27T18:09:22.083Z,9.55
2022-08-27T18:11:52.929Z,12.40
2022-08-27T18:14:21.755Z,11.80
2022-08-27T18:16:53.180Z,25.15
2022-08-27T18:19:21.811Z,20.88
2022-08-27T18:21:50.154Z,23.92
2022-08-27T18:24:18.888Z,38.55
2022-08-27T18:26:47.694Z,44.78
2022-08-27T18:29:17.587Z,29.92
2022-08-27T18:31:46.001Z,38.35
2022-08-27T18:34:18.779Z,30.63
2022-08-27T18:36:49.894Z,46.20
2022-08-27T18:39:27.805Z,44.25
2022-08-27T18:41:56.475Z,32.85
2022-08-27T18:44:26.268Z,28.45
2022-08-27T18:46:54.729Z,34.63
2022-08-27T18:49:26.684Z,25.95
2022-08-27T18:51:55.560Z,32.13
2022-08-27T18:54:27.324Z,42.80
2022-08-27T18:56:56.036Z,31.58
2022-08-27T18:59:27.215Z,42.28
2022-08-27T19:01:56.568Z,30.33
2022-08-27T19:04:25.759Z,31.13
2022-08-27T19:06:54.151Z,23.77
2022-08-27T19:09:22.501Z,35.88
2022-08-27T19:11:51.854Z,24.15
2022-08-27T19:14:20.286Z,26.40
2022-08-27T19:16:55.786Z,27.02
2022-08-27T19:19:25.238Z,33.72
2022-08-27T19:21:53.692Z,24.88
2022-08-27T19:24:22.619Z,27.13
2022-08-27T19:26:51.793Z,27.85
2022-08-27T19:29:20.180Z,27.38
2022-08-27T19:31:50.079Z,40.50
2022-08-27T19:34:18.633Z,29.50
2022-08-27T19:36:47.117Z,27.70
2022-08-27T19:39:15.519Z,24.70
2022-08-27T19:41:43.917Z,31.10
2022-08-27T19:44:12.314Z,31.30
2022-08-27T19:46:40.834Z,26.52
2022-08-27T19:49:10.905Z,30.77
2022-08-27T19:51:39.359Z,26.77
2022-08-27T19:54:07.773Z,34.80
2022-08-27T19:56:37.189Z,41.28
2022-08-27T19:59:20.140Z,32.20
2022-08-27T20:01:49.867Z,37.33
2022-08-27T20:04:19.665Z,28.85
2022-08-27T20:06:48.223Z,32.53
2022-08-27T20:09:21.166Z,29.30
2022-08-27T20:11:50.560Z,36.83
2022-08-27T20:14:19.258Z,28.92
2022-08-27T20:16:48.122Z,39.50
2022-08-27T20:19:16.881Z,47.80
2022-08-27T20:21:46.617Z,53.72
2022-08-27T20:24:15.016Z,52.60
2022-08-27T20:26:43.417Z,40.78
2022-08-27T20:29:12.205Z,63.90
2022-08-27T20:31:43.561Z,35.92
2022-08-27T20:34:12.023Z,35.55
2022-08-27T20:36:40.435Z,37.88
2022-08-27T20:39:10.305Z,55.83
2022-08-27T20:41:38.678Z,45.63
2022-08-27T20:44:09.008Z,43.35
2022-08-27T20:46:37.441Z,42.13
2022-08-27T20:49:07.811Z,36.67
2022-08-27T20:52:02.159Z,29.95
2022-08-27T20:54:26.454Z,33.35
2022-08-27T20:56:54.826Z,36.13
2022-08-27T20:59:40.932Z,30.40
2022-08-27T21:02:10.581Z,36.60
2022-08-27T21:04:39.592Z,32.33
2022-08-27T21:07:08.130Z,35.42
2022-08-27T21:09:56.302Z,28.58
2022-08-27T21:12:26.051Z,27.27
2022-08-27T21:14:56.154Z,22.00
2022-08-27T21:17:25.396Z,28.50
2022-08-27T21:19:53.753Z,50.03
2022-08-27T21:22:22.666Z,27.30
2022-08-27T21:24:52.568Z,35.88
2022-08-27T21:27:22.106Z,29.00
2022-08-27T21:29:54.157Z,47.53
2022-08-27T21:32:22.795Z,27.85
2022-08-27T21:34:51.193Z,29.13
2022-08-27T21:37:19.709Z,29.55
2022-08-27T21:39:48.058Z,24.33
2022-08-27T21:42:17.868Z,21.73
2022-08-27T21:44:46.247Z,26.13
2022-08-27T21:47:14.629Z,23.60
2022-08-27T21:49:42.995Z,32.80
2022-08-27T21:52:11.447Z,31.77
2022-08-27T21:54:41.119Z,28.20
2022-08-27T21:57:10.298Z,22.48
2022-08-27T21:59:45.610Z,28.05
2022-08-27T22:02:38.017Z,25.77
2022-08-27T22:05:03.455Z,17.10
2022-08-27T22:07:31.887Z,19.70
2022-08-27T22:10:00.275Z,18.30
2022-08-27T22:12:28.677Z,20.35
2022-08-27T22:14:58.599Z,20.42
2022-08-27T22:17:27.060Z,16.30
2022-08-27T22:19:57.618Z,21.77
2022-08-27T22:22:30.697Z,19.10
2022-08-27T22:25:02.112Z,18.98
2022-08-27T22:27:30.487Z,22.77
2022-08-27T22:30:00.239Z,19.15
2022-08-27T22:32:30.771Z,15.85
2022-08-27T22:34:59.131Z,19.85
2022-08-27T22:37:27.635Z,15.02
2022-08-27T22:39:56.950Z,13.57
2022-08-27T22:42:26.330Z,15.73
2022-08-27T22:44:55.088Z,13.23
2022-08-27T22:47:24.833Z,14.95
2022-08-27T22:49:53.173Z,17.58
2022-08-27T22:52:28.096Z,18.60
2022-08-27T22:54:56.793Z,12.68
2022-08-27T22:57:25.186Z,10.55
2022-08-27T22:59:53.545Z,13.55
2022-08-27T23:02:21.932Z,12.45
2022-08-27T23:04:55.767Z,13.73
2022-08-27T23:07:24.402Z,17.67
2022-08-27T23:09:52.856Z,15.63
2022-08-27T23:12:22.042Z,14.98
2022-08-27T23:14:50.657Z,14.30
2022-08-27T23:17:19.074Z,12.38
2022-08-27T23:19:47.998Z,18.17
2022-08-27T23:22:17.750Z,16.00
2022-08-27T23:25:04.753Z,16.00
2022-08-27T23:27:33.215Z,11.48
2022-08-27T23:30:02.806Z,13.80
2022-08-27T23:32:31.296Z,14.57
2022-08-27T23:34:59.669Z,15.82
2022-08-27T23:37:29.452Z,15.32
2022-08-27T23:39:57.881Z,14.98
2022-08-27T23:42:27.414Z,16.58
2022-08-27T23:44:55.797Z,14.30
2022-08-27T23:47:24.165Z,14.18
2022-08-27T23:49:52.630Z,11.98
2022-08-27T23:52:20.995Z,14.52
2022-08-27T23:54:50.706Z,10.48
2022-08-27T23:57:19.050Z,13.65
2022-08-27T23:59:47.414Z,10.95
